Muzaffarabad Weather



Muzaffarabad's Current Weather

Temprature 31.862o clear sky

clear sky

Rain: 0 %

Min Temprature31.862o
Max Temprature31.862o
Humidity18
Wind Speed1.88 m/h
Sun Rise04:55:23
Sun Set19:22:08
Current Time: 26-Jun-2019 15:15:16
Lat/Lon: 34.37, 73.47




Muzaffarabad's Geo Location



Muzaffarabad's Weather Forecast

Time Overall Temp Min Temp Max Temp Humidity Wind Speed Rain
26-Jun-2019 (Wed)
17:00:00 scattered clouds 30.950 30.950 30.950 19 1 m/h 0 %
20:00:00 clear sky 23.750 23.747 23.750 32 0.33 m/h 0 %
23:00:00 clear sky 21.640 21.640 21.640 36 1.85 m/h 0 %
27-Jun-2019 (Thu)
02:00:00 clear sky 20.680 20.679 20.680 35 2.19 m/h 0 %
05:00:00 clear sky 20.065 20.065 20.065 34 2.2 m/h 0 %
08:00:00 clear sky 27.150 27.150 27.150 26 1.53 m/h 0 %
11:00:00 clear sky 31.774 31.774 31.774 19 1.65 m/h 0 %
14:00:00 scattered clouds 32.350 32.350 32.350 18 4.08 m/h 0 %
17:00:00 scattered clouds 32.380 32.380 32.380 16 2.73 m/h 0 %
20:00:00 clear sky 24.594 24.594 24.594 28 0.91 m/h 0 %
23:00:00 clear sky 21.635 21.635 21.635 39 3.12 m/h 0 %
28-Jun-2019 (Fri)
02:00:00 clear sky 20.528 20.528 20.528 38 3.07 m/h 0 %
05:00:00 clear sky 20.128 20.128 20.128 36 3.09 m/h 0 %
08:00:00 clear sky 27.389 27.389 27.389 27 2.47 m/h 0 %
11:00:00 clear sky 33.225 33.225 33.225 17 1.04 m/h 0 %
14:00:00 clear sky 34.431 34.431 34.431 13 2.23 m/h 0 %
17:00:00 clear sky 33.850 33.850 33.850 12 1.66 m/h 0 %
20:00:00 clear sky 25.650 25.650 25.650 23 1.17 m/h 0 %
23:00:00 clear sky 23.672 23.672 23.672 26 2.66 m/h 0 %
29-Jun-2019 (Sat)
02:00:00 clear sky 22.472 22.472 22.472 26 2.77 m/h 0 %
05:00:00 clear sky 21.999 21.999 21.999 26 2.85 m/h 0 %
08:00:00 clear sky 29.467 29.467 29.467 21 1.5 m/h 0 %
11:00:00 clear sky 34.450 34.450 34.450 15 1.5 m/h 0 %
14:00:00 clear sky 35.950 35.950 35.950 12 2.48 m/h 0 %
17:00:00 few clouds 35.091 35.091 35.091 12 4.2 m/h 0 %
20:00:00 broken clouds 27.150 27.150 27.150 21 1.68 m/h 0 %
23:00:00 scattered clouds 24.850 24.850 24.850 25 3.2 m/h 0 %
30-Jun-2019 (Sun)
02:00:00 broken clouds 23.566 23.566 23.566 27 2.45 m/h 0 %
05:00:00 scattered clouds 22.512 22.512 22.512 28 2.4 m/h 0 %
08:00:00 broken clouds 29.022 29.022 29.022 25 2.32 m/h 0 %
11:00:00 scattered clouds 35.318 35.318 35.318 17 0.61 m/h 0 %
14:00:00 clear sky 36.509 36.509 36.509 13 2.77 m/h 0 %
17:00:00 few clouds 35.750 35.750 35.750 13 4.18 m/h 0 %
20:00:00 scattered clouds 25.250 25.250 25.250 34 4.16 m/h 0 %
23:00:00 few clouds 23.450 23.450 23.450 35 3.28 m/h 0 %
01-Jul-2019 (Mon)
02:00:00 clear sky 23.250 23.250 23.250 31 2.96 m/h 0 %
05:00:00 clear sky 22.935 22.935 22.935 30 2.65 m/h 0 %
08:00:00 clear sky 30.350 30.350 30.350 23 1.85 m/h 0 %
11:00:00 clear sky 35.650 35.650 35.650 16 1.14 m/h 0 %
14:00:00 clear sky 37.550 37.550 37.550 12 1.74 m/h 0 %

Famous Cities (60)